Terminal Aerodrome Forecast
Issued by NWS Mt. Holly, NJ

Home | Current Version | Previous Version | Text Only | Print | Product List | Glossary On
Versions: 1 2 3 4 5 6 7 8 9 10 11 12 13 14 15 16 17 18 19 20 21 22 23 24 25 26 27 28 29 30
000
FTUS41 KPHI 022100 AAA
TAFPHL
TAF AMD
KPHL 022100Z 0221/0324 30014G24KT P6SM FEW040
     FM022300 30010KT P6SM SCT250
     FM030400 33005KT P6SM SCT250
     FM031200 02005KT P6SM BKN150
     FM031700 15005KT P6SM OVC080
     FM032200 16008KT 2SM -SNPL BKN020 OVC035 WS020/19040KT=

USA.gov is the U.S. government's official web portal to all federal, state and local government web resources and services.